createdAt,value
2019-01-31T00:01:17.180Z,16.67
2019-01-31T00:03:51.224Z,16.40
2019-01-31T00:06:22.796Z,16.97
2019-01-31T00:09:21.751Z,19.40
2019-01-31T00:11:55.919Z,17.20
2019-01-31T00:14:42.513Z,18.73
2019-01-31T00:17:29.170Z,18.30
2019-01-31T00:20:10.224Z,18.67
2019-01-31T00:22:59.547Z,17.50
2019-01-31T00:25:56.165Z,19.10
2019-01-31T00:28:57.715Z,17.03
2019-01-31T00:31:48.420Z,19.13
2019-01-31T00:34:37.668Z,16.43
2019-01-31T00:37:20.924Z,18.83
2019-01-31T00:40:16.663Z,19.50
2019-01-31T00:42:51.219Z,18.43
2019-01-31T00:45:31.389Z,18.07
2019-01-31T00:48:05.613Z,18.77
2019-01-31T00:50:56.636Z,18.43
2019-01-31T00:53:49.153Z,16.67
2019-01-31T00:56:32.316Z,17.40
2019-01-31T00:59:12.672Z,18.10
2019-01-31T01:01:59.151Z,17.23
2019-01-31T01:04:33.564Z,17.10
2019-01-31T01:07:20.039Z,17.93
2019-01-31T01:09:51.520Z,16.87
2019-01-31T01:12:23.017Z,17.63
2019-01-31T01:15:15.687Z,17.63
2019-01-31T01:17:52.904Z,18.20
2019-01-31T01:20:39.399Z,17.70
2019-01-31T01:23:13.823Z,17.00
2019-01-31T01:25:45.488Z,18.63
2019-01-31T01:28:25.899Z,18.43
2019-01-31T01:31:12.539Z,18.20
2019-01-31T01:34:00.408Z,17.83
2019-01-31T01:36:43.672Z,18.43
2019-01-31T01:39:21.051Z,18.70
2019-01-31T01:41:55.373Z,18.10
2019-01-31T01:44:41.891Z,18.50
2019-01-31T01:47:15.991Z,18.53
2019-01-31T01:49:53.676Z,18.57
2019-01-31T01:52:31.036Z,19.90
2019-01-31T01:55:22.133Z,18.70
2019-01-31T01:58:14.413Z,19.30
2019-01-31T02:00:51.860Z,18.73
2019-01-31T02:03:40.609Z,18.87
2019-01-31T02:06:26.844Z,18.07
2019-01-31T02:09:13.340Z,19.20
2019-01-31T02:11:59.648Z,19.20
2019-01-31T02:14:56.883Z,17.23
2019-01-31T02:17:40.081Z,19.90
2019-01-31T02:20:23.376Z,18.70
2019-01-31T02:23:19.925Z,19.07
2019-01-31T02:25:51.701Z,18.30
2019-01-31T02:28:27.163Z,18.90
2019-01-31T02:31:04.304Z,19.80
2019-01-31T02:33:41.543Z,18.67
2019-01-31T02:36:21.448Z,18.33
2019-01-31T02:39:07.947Z,18.97
2019-01-31T02:41:51.125Z,17.07
2019-01-31T02:44:34.819Z,18.17
2019-01-31T02:47:10.425Z,18.77
2019-01-31T02:50:02.551Z,18.53
2019-01-31T02:52:45.781Z,19.70
2019-01-31T02:55:20.175Z,17.97
2019-01-31T02:57:59.833Z,17.80
2019-01-31T03:00:43.273Z,20.00
2019-01-31T03:03:37.281Z,16.37
2019-01-31T03:06:15.520Z,17.97
2019-01-31T03:08:52.931Z,18.27
2019-01-31T03:11:27.010Z,19.00
2019-01-31T03:14:10.042Z,17.60
2019-01-31T03:16:50.062Z,17.10
2019-01-31T03:19:44.004Z,18.57
2019-01-31T03:22:16.596Z,17.57
2019-01-31T03:24:59.868Z,17.60
2019-01-31T03:27:34.034Z,16.97
2019-01-31T03:30:24.998Z,16.43
2019-01-31T03:33:08.803Z,18.33
2019-01-31T03:35:43.258Z,16.63
2019-01-31T03:38:14.756Z,16.50
2019-01-31T03:41:00.758Z,18.00
2019-01-31T03:43:47.411Z,17.47
2019-01-31T03:46:33.721Z,18.50
2019-01-31T03:49:20.296Z,17.03
2019-01-31T03:52:00.780Z,17.73
2019-01-31T03:54:51.964Z,17.40
2019-01-31T03:57:28.965Z,17.20
2019-01-31T04:00:00.531Z,18.63
2019-01-31T04:02:37.852Z,17.03
2019-01-31T04:05:27.307Z,17.40
2019-01-31T04:07:55.877Z,16.87
2019-01-31T04:10:24.302Z,18.00
2019-01-31T04:12:52.712Z,17.10
2019-01-31T04:15:21.147Z,17.00
2019-01-31T04:17:49.552Z,17.90
2019-01-31T04:20:17.951Z,17.40
2019-01-31T04:22:48.023Z,13.80
2019-01-31T04:25:16.428Z,16.50
2019-01-31T04:27:44.840Z,17.07
2019-01-31T04:30:16.690Z,16.53
2019-01-31T04:32:45.110Z,13.30
2019-01-31T04:35:13.900Z,15.10
2019-01-31T04:37:42.335Z,19.00
2019-01-31T04:40:11.474Z,17.67
2019-01-31T04:42:39.888Z,17.43
2019-01-31T04:45:10.338Z,18.67
2019-01-31T04:47:38.769Z,18.67
2019-01-31T04:50:10.248Z,20.20
2019-01-31T04:52:38.667Z,20.20
2019-01-31T04:55:08.145Z,20.50
2019-01-31T04:57:36.548Z,20.27
2019-01-31T05:00:13.849Z,19.40
2019-01-31T05:02:42.959Z,22.37
2019-01-31T05:05:12.146Z,20.80
2019-01-31T05:07:40.573Z,19.43
2019-01-31T05:10:11.642Z,20.70
2019-01-31T05:12:40.053Z,23.47
2019-01-31T05:15:12.090Z,22.27
2019-01-31T05:17:40.480Z,21.40
2019-01-31T05:20:12.208Z,22.53
2019-01-31T05:22:40.668Z,20.73
2019-01-31T05:25:11.441Z,20.67
2019-01-31T05:27:39.846Z,22.73
2019-01-31T05:30:11.573Z,23.37
2019-01-31T05:32:40.251Z,21.70
2019-01-31T05:35:10.528Z,23.50
2019-01-31T05:37:38.986Z,21.43
2019-01-31T05:40:10.606Z,23.47
2019-01-31T05:42:39.029Z,22.00
2019-01-31T05:45:11.077Z,20.77
2019-01-31T05:47:39.501Z,22.17
2019-01-31T05:50:10.990Z,22.37
2019-01-31T05:52:39.401Z,23.20
2019-01-31T05:55:08.552Z,22.67
2019-01-31T05:57:37.120Z,24.23
2019-01-31T06:00:08.686Z,25.53
2019-01-31T06:02:37.093Z,22.73
2019-01-31T06:05:08.587Z,22.40
2019-01-31T06:07:37.024Z,22.90
2019-01-31T06:10:10.795Z,22.40
2019-01-31T06:12:39.217Z,22.00
2019-01-31T06:15:10.710Z,23.40
2019-01-31T06:17:39.117Z,22.37
2019-01-31T06:20:10.761Z,24.33
2019-01-31T06:22:40.988Z,23.63
2019-01-31T06:25:09.938Z,25.03
2019-01-31T06:27:38.493Z,25.10
2019-01-31T06:30:13.220Z,25.43
2019-01-31T06:32:41.640Z,24.37
2019-01-31T06:35:11.867Z,23.63
2019-01-31T06:37:40.288Z,25.40
2019-01-31T06:40:11.897Z,25.37
2019-01-31T06:42:40.305Z,25.73
2019-01-31T06:45:12.533Z,25.77
2019-01-31T06:47:41.371Z,23.83
2019-01-31T06:50:10.468Z,25.33
2019-01-31T06:52:38.900Z,26.10
2019-01-31T06:55:10.143Z,26.47
2019-01-31T06:57:38.624Z,24.87
2019-01-31T07:00:21.679Z,25.20
2019-01-31T07:02:50.659Z,24.27
2019-01-31T07:05:19.053Z,24.53
2019-01-31T07:07:47.560Z,24.17
2019-01-31T07:10:21.616Z,24.10
2019-01-31T07:12:50.041Z,23.73
2019-01-31T07:15:19.333Z,25.97
2019-01-31T07:17:48.042Z,23.23
2019-01-31T07:20:17.938Z,25.20
2019-01-31T07:22:47.065Z,23.97
2019-01-31T07:25:18.373Z,26.40
2019-01-31T07:27:46.911Z,25.90
2019-01-31T07:30:20.902Z,24.33
2019-01-31T07:32:49.363Z,27.93
2019-01-31T07:35:18.104Z,26.50
2019-01-31T07:37:46.547Z,24.03
2019-01-31T07:40:20.324Z,24.37
2019-01-31T07:42:48.778Z,23.77
2019-01-31T07:45:29.071Z,23.90
2019-01-31T07:47:57.753Z,24.87
2019-01-31T07:50:28.066Z,24.50
2019-01-31T07:52:56.840Z,24.40
2019-01-31T07:55:25.263Z,25.33
2019-01-31T07:57:53.701Z,25.60
2019-01-31T08:00:28.279Z,24.97
2019-01-31T08:02:56.948Z,24.63
2019-01-31T08:05:25.633Z,23.80
2019-01-31T08:07:56.373Z,25.23
2019-01-31T08:10:27.619Z,22.50
2019-01-31T08:12:56.291Z,24.97
2019-01-31T08:15:24.747Z,24.93
2019-01-31T08:17:53.159Z,23.60
2019-01-31T08:20:21.564Z,23.00
2019-01-31T08:22:50.036Z,23.03
2019-01-31T08:25:21.564Z,22.10
2019-01-31T08:27:51.424Z,21.90
2019-01-31T08:30:25.440Z,21.33
2019-01-31T08:32:54.028Z,22.77
2019-01-31T08:35:22.460Z,21.87
2019-01-31T08:37:50.887Z,23.80
2019-01-31T08:40:19.483Z,21.33
2019-01-31T08:42:47.995Z,21.63
2019-01-31T08:45:16.596Z,23.30
2019-01-31T08:47:45.016Z,22.17
2019-01-31T08:50:19.168Z,21.70
2019-01-31T08:52:49.120Z,23.60
2019-01-31T08:55:18.116Z,25.60
2019-01-31T08:57:47.554Z,23.47
2019-01-31T09:00:18.815Z,28.67
2019-01-31T09:02:47.513Z,23.53
2019-01-31T09:05:16.211Z,22.20
2019-01-31T09:07:44.689Z,23.53
2019-01-31T09:10:21.825Z,24.17
2019-01-31T09:12:50.245Z,22.67
2019-01-31T09:15:23.839Z,21.80
2019-01-31T09:17:52.602Z,21.33
2019-01-31T09:20:43.896Z,21.17
2019-01-31T09:23:33.104Z,21.37
2019-01-31T09:26:13.388Z,23.60
2019-01-31T09:28:59.671Z,22.30
2019-01-31T09:31:43.129Z,23.80
2019-01-31T09:34:26.936Z,24.10
2019-01-31T09:36:58.628Z,21.67
2019-01-31T09:39:47.745Z,22.50
2019-01-31T09:42:37.484Z,21.63
2019-01-31T09:45:28.232Z,20.47
2019-01-31T09:48:17.494Z,19.23
2019-01-31T09:50:58.128Z,19.43
2019-01-31T09:53:34.801Z,17.37
2019-01-31T09:56:39.641Z,17.47
2019-01-31T09:59:32.205Z,17.10
2019-01-31T10:02:29.191Z,19.87
2019-01-31T10:05:09.561Z,19.70
2019-01-31T10:07:43.953Z,17.97
2019-01-31T10:10:33.293Z,19.70
2019-01-31T10:13:26.201Z,20.47
2019-01-31T10:16:06.825Z,18.70
2019-01-31T10:18:53.200Z,18.90
2019-01-31T10:21:36.484Z,19.63
2019-01-31T10:24:22.543Z,19.57
2019-01-31T10:26:59.801Z,20.07
2019-01-31T10:29:40.064Z,19.13
2019-01-31T10:32:29.476Z,20.47
2019-01-31T10:35:09.505Z,18.97
2019-01-31T10:37:53.080Z,20.70
2019-01-31T10:40:42.658Z,18.97
2019-01-31T10:43:27.346Z,20.87
2019-01-31T10:46:16.829Z,19.60
2019-01-31T10:49:00.028Z,19.90
2019-01-31T10:51:40.072Z,21.03
2019-01-31T10:54:41.636Z,20.50
2019-01-31T10:57:37.232Z,19.60
2019-01-31T11:00:21.369Z,19.87
2019-01-31T11:03:09.644Z,19.33
2019-01-31T11:05:41.223Z,17.70
2019-01-31T11:08:18.353Z,18.40
2019-01-31T11:10:52.597Z,19.70
2019-01-31T11:13:30.007Z,20.20
2019-01-31T11:16:38.808Z,18.20
2019-01-31T11:19:15.933Z,18.00
2019-01-31T11:22:07.393Z,17.10
2019-01-31T11:24:43.838Z,18.57
2019-01-31T11:27:33.627Z,19.17
2019-01-31T11:30:32.207Z,16.23
2019-01-31T11:33:27.818Z,15.30
2019-01-31T11:36:05.000Z,16.03
2019-01-31T11:38:36.481Z,14.80
2019-01-31T11:41:19.566Z,11.90
2019-01-31T11:43:56.911Z,12.57
2019-01-31T11:46:49.253Z,10.90
2019-01-31T11:49:23.524Z,11.33
2019-01-31T11:52:09.344Z,7.67
2019-01-31T11:54:55.190Z,10.87
2019-01-31T11:57:40.628Z,9.83
2019-01-31T12:00:15.146Z,9.20
2019-01-31T12:02:54.501Z,10.00
2019-01-31T12:05:13.806Z,11.70
2019-01-31T12:07:42.382Z,10.77
2019-01-31T12:10:11.633Z,11.87
2019-01-31T12:12:40.044Z,11.83
2019-01-31T12:15:09.896Z,11.20
2019-01-31T12:17:38.394Z,12.90
2019-01-31T12:20:12.801Z,10.07
2019-01-31T12:22:41.512Z,12.57
2019-01-31T12:25:10.459Z,13.73
2019-01-31T12:27:38.875Z,12.50
2019-01-31T12:30:19.241Z,11.77
2019-01-31T12:32:47.672Z,11.27
2019-01-31T12:35:16.091Z,10.80
2019-01-31T12:37:44.515Z,9.87
2019-01-31T12:40:15.852Z,6.97
2019-01-31T12:42:44.259Z,8.50
2019-01-31T12:45:15.320Z,8.90
2019-01-31T12:47:45.162Z,8.70
2019-01-31T12:50:19.412Z,9.90
2019-01-31T12:52:48.004Z,10.17
2019-01-31T12:55:16.437Z,8.73
2019-01-31T12:57:44.833Z,8.73
2019-01-31T13:00:16.334Z,9.30
2019-01-31T13:02:44.740Z,9.13
2019-01-31T13:05:14.995Z,9.43
2019-01-31T13:07:43.973Z,9.67
2019-01-31T13:10:13.838Z,10.90
2019-01-31T13:12:48.842Z,9.47
2019-01-31T13:15:15.570Z,8.90
2019-01-31T13:17:44.804Z,9.10
2019-01-31T13:20:21.436Z,8.30
2019-01-31T13:22:52.662Z,9.40
2019-01-31T13:25:22.620Z,8.53
2019-01-31T13:27:51.509Z,9.27
2019-01-31T13:30:23.948Z,8.60
2019-01-31T13:32:54.793Z,9.50
2019-01-31T13:35:23.500Z,9.13
2019-01-31T13:37:51.897Z,9.40
2019-01-31T13:40:25.146Z,9.10
2019-01-31T13:42:54.509Z,8.90
2019-01-31T13:45:26.057Z,8.93
2019-01-31T13:47:54.556Z,10.00
2019-01-31T13:50:23.367Z,9.03
2019-01-31T13:52:52.045Z,10.60
2019-01-31T13:55:23.782Z,8.37
2019-01-31T13:57:52.366Z,8.37
2019-01-31T14:00:23.305Z,9.30
2019-01-31T14:02:52.597Z,8.13
2019-01-31T14:05:21.176Z,8.60
2019-01-31T14:07:49.578Z,9.87
2019-01-31T14:10:24.110Z,8.53
2019-01-31T14:12:52.512Z,9.07
2019-01-31T14:15:33.684Z,8.47
2019-01-31T14:17:57.217Z,7.73
2019-01-31T14:20:27.568Z,8.30
2019-01-31T14:22:56.040Z,8.43
2019-01-31T14:25:24.798Z,9.20
2019-01-31T14:27:53.589Z,8.37
2019-01-31T14:30:30.609Z,8.40
2019-01-31T14:32:59.452Z,8.20
2019-01-31T14:35:28.801Z,8.50
2019-01-31T14:37:57.486Z,8.10
2019-01-31T14:40:28.732Z,8.50
2019-01-31T14:42:57.572Z,9.00
2019-01-31T14:45:26.658Z,7.93
2019-01-31T14:47:55.917Z,8.30
2019-01-31T14:50:30.428Z,8.00
2019-01-31T14:52:58.876Z,7.90
2019-01-31T14:55:27.561Z,6.97
2019-01-31T14:57:55.987Z,7.60
2019-01-31T15:00:34.076Z,6.73
2019-01-31T15:03:02.488Z,7.50
2019-01-31T15:05:31.121Z,8.50
2019-01-31T15:07:59.513Z,8.10
2019-01-31T15:10:29.672Z,8.37
2019-01-31T15:12:58.503Z,7.50
2019-01-31T15:15:27.133Z,8.20
2019-01-31T15:17:55.797Z,8.27
2019-01-31T15:20:35.971Z,8.30
2019-01-31T15:22:56.784Z,8.70
2019-01-31T15:25:25.349Z,8.27
2019-01-31T15:27:53.933Z,8.07
2019-01-31T15:30:36.140Z,8.17
2019-01-31T15:33:07.576Z,8.87
2019-01-31T15:35:36.094Z,8.10
2019-01-31T15:38:04.967Z,8.27
2019-01-31T15:40:39.404Z,8.90
2019-01-31T15:43:08.073Z,9.30
2019-01-31T15:45:36.633Z,9.10
2019-01-31T15:48:05.799Z,8.23
2019-01-31T15:50:34.801Z,9.57
2019-01-31T15:53:03.316Z,7.70
2019-01-31T15:55:31.742Z,8.90
2019-01-31T15:58:00.152Z,8.20
2019-01-31T16:00:41.608Z,7.03
2019-01-31T16:03:12.375Z,8.93
2019-01-31T16:05:41.057Z,8.00
2019-01-31T16:08:10.329Z,6.93
2019-01-31T16:10:38.803Z,21.30
2019-01-31T16:13:07.735Z,9.43
2019-01-31T16:15:36.580Z,18.73
2019-01-31T16:18:06.332Z,31.27
2019-01-31T16:20:35.009Z,16.60
2019-01-31T16:23:03.694Z,9.90
2019-01-31T16:25:32.097Z,9.57
2019-01-31T16:28:00.596Z,8.43
2019-01-31T16:30:29.028Z,8.60
2019-01-31T16:32:57.452Z,7.60
2019-01-31T16:35:26.157Z,9.80
2019-01-31T16:37:54.644Z,8.03
2019-01-31T16:40:23.889Z,8.33
2019-01-31T16:42:52.564Z,9.77
2019-01-31T16:45:21.309Z,9.70
2019-01-31T16:47:49.722Z,21.13
2019-01-31T16:50:20.708Z,16.17
2019-01-31T16:52:49.118Z,10.63
2019-01-31T16:55:23.255Z,8.43
2019-01-31T16:57:53.210Z,7.27
2019-01-31T17:00:24.725Z,7.97
2019-01-31T17:02:53.428Z,8.07
2019-01-31T17:05:24.860Z,8.30
2019-01-31T17:07:53.846Z,7.63
2019-01-31T17:10:22.392Z,8.00
2019-01-31T17:12:50.921Z,7.40
2019-01-31T17:15:20.790Z,7.60
2019-01-31T17:17:50.128Z,7.37
2019-01-31T17:20:24.932Z,8.17
2019-01-31T17:22:54.230Z,7.13
2019-01-31T17:25:22.684Z,7.70
2019-01-31T17:27:51.257Z,7.27
2019-01-31T17:30:22.465Z,7.70
2019-01-31T17:32:52.344Z,8.40
2019-01-31T17:35:21.017Z,8.93
2019-01-31T17:37:49.435Z,7.63
2019-01-31T17:40:23.508Z,8.10
2019-01-31T17:42:51.922Z,8.57
2019-01-31T17:45:30.031Z,7.47
2019-01-31T17:47:52.156Z,8.47
2019-01-31T17:50:20.933Z,13.43
2019-01-31T17:52:49.524Z,14.67
2019-01-31T17:55:20.384Z,8.10
2019-01-31T17:57:48.834Z,9.63
2019-01-31T18:00:24.367Z,12.77
2019-01-31T18:02:51.958Z,12.40
2019-01-31T18:05:20.483Z,8.70
2019-01-31T18:07:48.888Z,8.70
2019-01-31T18:10:19.872Z,9.60
2019-01-31T18:12:48.294Z,8.37
2019-01-31T18:15:17.220Z,10.18
2019-01-31T18:17:45.984Z,9.40
2019-01-31T18:20:19.804Z,9.13
2019-01-31T18:22:48.215Z,10.10
2019-01-31T18:25:17.504Z,9.07
2019-01-31T18:27:45.913Z,9.37
2019-01-31T18:30:32.425Z,9.00
2019-01-31T18:33:00.892Z,9.53
2019-01-31T18:35:29.481Z,10.50
2019-01-31T18:37:57.969Z,9.50
2019-01-31T18:40:28.661Z,9.23
2019-01-31T18:42:57.073Z,10.40
2019-01-31T18:45:28.253Z,9.57
2019-01-31T18:47:57.146Z,9.97
2019-01-31T18:50:28.064Z,9.00
2019-01-31T18:52:56.569Z,10.23
2019-01-31T18:55:25.783Z,11.10
2019-01-31T18:57:54.455Z,10.30
2019-01-31T19:00:31.667Z,11.33
2019-01-31T19:03:00.126Z,9.10
2019-01-31T19:05:29.276Z,11.20
2019-01-31T19:07:58.776Z,11.17
2019-01-31T19:10:27.196Z,11.23
2019-01-31T19:12:55.722Z,10.13
2019-01-31T19:15:25.900Z,10.23
2019-01-31T19:18:04.497Z,9.20
2019-01-31T19:20:31.942Z,11.40
2019-01-31T19:23:02.460Z,9.07
2019-01-31T19:25:32.309Z,9.53
2019-01-31T19:28:01.397Z,10.97
2019-01-31T19:30:32.494Z,10.30
2019-01-31T19:33:00.901Z,9.80
2019-01-31T19:35:29.348Z,10.07
2019-01-31T19:38:02.222Z,10.50
2019-01-31T19:40:33.672Z,10.23
2019-01-31T19:43:03.229Z,9.93
2019-01-31T19:45:36.870Z,10.13
2019-01-31T19:48:06.143Z,10.43
2019-01-31T19:50:34.576Z,10.33
2019-01-31T19:53:03.317Z,12.63
2019-01-31T19:55:32.217Z,9.97
2019-01-31T19:58:00.884Z,11.40
2019-01-31T20:00:29.290Z,12.30
2019-01-31T20:02:58.683Z,14.90
2019-01-31T20:05:27.175Z,10.33
2019-01-31T20:07:56.072Z,9.60
2019-01-31T20:10:27.167Z,11.60
2019-01-31T20:12:56.102Z,9.57
2019-01-31T20:15:25.085Z,10.90
2019-01-31T20:17:53.496Z,12.03
2019-01-31T20:20:24.236Z,11.40
2019-01-31T20:22:53.732Z,9.93
2019-01-31T20:25:23.181Z,10.03
2019-01-31T20:27:52.148Z,9.70
2019-01-31T20:30:29.598Z,10.87
2019-01-31T20:33:01.221Z,10.43
2019-01-31T20:35:30.176Z,10.10
2019-01-31T20:37:58.669Z,11.30
2019-01-31T20:40:35.532Z,10.60
2019-01-31T20:43:05.136Z,10.90
2019-01-31T20:45:33.573Z,11.40
2019-01-31T20:48:02.110Z,12.37
2019-01-31T20:50:33.469Z,11.93
2019-01-31T20:53:02.064Z,10.60
2019-01-31T20:55:31.009Z,10.97
2019-01-31T20:57:59.488Z,11.43
2019-01-31T21:00:36.711Z,12.00
2019-01-31T21:03:07.574Z,11.50
2019-01-31T21:05:36.530Z,12.50
2019-01-31T21:08:07.319Z,12.90
2019-01-31T21:10:36.096Z,11.60
2019-01-31T21:13:05.776Z,12.63
2019-01-31T21:15:34.257Z,11.97
2019-01-31T21:18:02.862Z,11.87
2019-01-31T21:20:31.326Z,13.73
2019-01-31T21:22:59.733Z,12.00
2019-01-31T21:25:28.230Z,13.23
2019-01-31T21:27:56.676Z,103.03
2019-01-31T21:30:28.320Z,15.50
2019-01-31T21:32:56.737Z,12.60
2019-01-31T21:35:26.612Z,13.20
2019-01-31T21:37:55.088Z,14.20
2019-01-31T21:40:25.828Z,14.00
2019-01-31T21:42:54.296Z,14.03
2019-01-31T21:45:24.469Z,12.90
2019-01-31T21:47:52.916Z,14.37
2019-01-31T21:50:42.182Z,13.87
2019-01-31T21:53:10.649Z,13.20
2019-01-31T21:55:39.064Z,14.70
2019-01-31T21:58:07.571Z,13.90
2019-01-31T22:00:36.839Z,13.57
2019-01-31T22:03:06.413Z,14.00
2019-01-31T22:05:35.205Z,13.27
2019-01-31T22:08:04.466Z,13.90
2019-01-31T22:10:34.021Z,13.57
2019-01-31T22:13:03.082Z,13.60
2019-01-31T22:15:35.071Z,13.90
2019-01-31T22:18:03.868Z,13.23
2019-01-31T22:20:32.496Z,14.40
2019-01-31T22:23:00.910Z,15.10
2019-01-31T22:25:29.322Z,13.73
2019-01-31T22:27:57.749Z,14.70
2019-01-31T22:30:34.004Z,14.73
2019-01-31T22:33:02.404Z,14.93
2019-01-31T22:35:31.112Z,22.53
2019-01-31T22:37:59.516Z,14.90
2019-01-31T22:40:28.379Z,13.50
2019-01-31T22:42:56.789Z,14.87
2019-01-31T22:45:26.032Z,14.37
2019-01-31T22:47:56.048Z,12.83
2019-01-31T22:50:25.005Z,15.53
2019-01-31T22:52:54.506Z,14.67
2019-01-31T22:55:25.080Z,15.07
2019-01-31T22:57:55.090Z,14.07
2019-01-31T23:00:56.813Z,14.40
2019-01-31T23:03:25.231Z,14.50
2019-01-31T23:05:53.650Z,15.00
2019-01-31T23:08:22.125Z,14.83
2019-01-31T23:10:50.544Z,16.17
2019-01-31T23:13:18.971Z,16.40
2019-01-31T23:15:47.529Z,14.43
2019-01-31T23:18:15.949Z,15.03
2019-01-31T23:20:44.672Z,15.87
2019-01-31T23:23:13.086Z,15.87
2019-01-31T23:25:41.504Z,15.93
2019-01-31T23:28:09.932Z,14.73
2019-01-31T23:30:38.372Z,15.80
2019-01-31T23:33:06.781Z,15.43
2019-01-31T23:35:35.193Z,17.10
2019-01-31T23:38:04.368Z,17.40
2019-01-31T23:40:32.810Z,15.00
2019-01-31T23:43:01.238Z,16.30
2019-01-31T23:45:29.643Z,15.87
2019-01-31T23:47:58.068Z,16.33
2019-01-31T23:50:26.479Z,16.40
2019-01-31T23:52:54.891Z,16.20
2019-01-31T23:55:23.489Z,16.00
2019-01-31T23:57:51.893Z,14.73
